sensor_id;sensor_type;location;lat;lon;timestamp;pressure;altitude;pressure_sealevel;temperature;humidity
9969;BME280;5025;48.890;9.278;2022-10-16T00:01:38;98650.56;;;16.23;86.79
9969;BME280;5025;48.890;9.278;2022-10-16T00:04:03;98653.81;;;16.20;86.90
9969;BME280;5025;48.890;9.278;2022-10-16T00:06:30;98645.13;;;16.18;86.86
9969;BME280;5025;48.890;9.278;2022-10-16T00:08:56;98640.47;;;16.19;86.81
9969;BME280;5025;48.890;9.278;2022-10-16T00:11:24;98649.50;;;16.19;87.08
9969;BME280;5025;48.890;9.278;2022-10-16T00:13:52;98632.31;;;16.19;86.91
9969;BME280;5025;48.890;9.278;2022-10-16T00:16:19;98634.75;;;16.20;87.12
9969;BME280;5025;48.890;9.278;2022-10-16T00:18:45;98627.38;;;16.16;87.04
9969;BME280;5025;48.890;9.278;2022-10-16T00:21:13;98632.84;;;16.16;87.43
9969;BME280;5025;48.890;9.278;2022-10-16T00:23:39;98639.94;;;16.17;86.97
9969;BME280;5025;48.890;9.278;2022-10-16T00:26:11;98643.19;;;16.19;87.23
9969;BME280;5025;48.890;9.278;2022-10-16T00:28:37;98627.13;;;16.17;87.00
9969;BME280;5025;48.890;9.278;2022-10-16T00:31:07;98627.69;;;16.19;87.47
9969;BME280;5025;48.890;9.278;2022-10-16T00:33:34;98628.78;;;16.18;87.50
9969;BME280;5025;48.890;9.278;2022-10-16T00:36:01;98632.03;;;16.20;87.52
9969;BME280;5025;48.890;9.278;2022-10-16T00:38:26;98634.75;;;16.20;87.40
9969;BME280;5025;48.890;9.278;2022-10-16T00:40:51;98633.69;;;16.21;87.37
9969;BME280;5025;48.890;9.278;2022-10-16T00:46:09;98650.56;;;16.23;87.35
9969;BME280;5025;48.890;9.278;2022-10-16T00:48:36;98643.50;;;16.22;87.05
9969;BME280;5025;48.890;9.278;2022-10-16T00:51:02;98647.31;;;16.21;87.17
9969;BME280;5025;48.890;9.278;2022-10-16T00:53:27;98650.56;;;16.23;87.29
9969;BME280;5025;48.890;9.278;2022-10-16T00:55:53;98646.50;;;16.21;87.22
9969;BME280;5025;48.890;9.278;2022-10-16T00:58:20;98647.84;;;16.18;87.25
9969;BME280;5025;48.890;9.278;2022-10-16T01:00:45;98641.00;;;16.16;87.31
9969;BME280;5025;48.890;9.278;2022-10-16T01:03:31;98643.72;;;16.16;87.29
9969;BME280;5025;48.890;9.278;2022-10-16T01:09:11;98645.91;;;16.13;87.30
9969;BME280;5025;48.890;9.278;2022-10-16T01:11:41;98656.00;;;16.13;87.55
9969;BME280;5025;48.890;9.278;2022-10-16T01:14:28;98666.38;;;16.16;87.39
9969;BME280;5025;48.890;9.278;2022-10-16T01:17:04;98664.72;;;16.15;87.49
9969;BME280;5025;48.890;9.278;2022-10-16T01:19:57;98654.63;;;16.16;87.43
9969;BME280;5025;48.890;9.278;2022-10-16T01:22:42;98657.88;;;16.12;87.55
9969;BME280;5025;48.890;9.278;2022-10-16T01:25:16;98664.72;;;16.15;87.43
9969;BME280;5025;48.890;9.278;2022-10-16T01:27:45;98650.56;;;16.13;87.37
9969;BME280;5025;48.890;9.278;2022-10-16T01:30:30;98645.91;;;16.13;87.45
9969;BME280;5025;48.890;9.278;2022-10-16T01:33:11;98648.91;;;16.12;87.48
9969;BME280;5025;48.890;9.278;2022-10-16T01:35:43;98655.16;;;16.12;87.70
9969;BME280;5025;48.890;9.278;2022-10-16T01:38:25;98658.72;;;16.13;87.50
9969;BME280;5025;48.890;9.278;2022-10-16T01:41:00;98655.44;;;16.11;87.51
9969;BME280;5025;48.890;9.278;2022-10-16T01:43:31;98655.97;;;16.08;87.37
9969;BME280;5025;48.890;9.278;2022-10-16T01:46:00;98653.81;;;16.10;87.42
9969;BME280;5025;48.890;9.278;2022-10-16T01:48:26;98651.09;;;16.10;87.43
9969;BME280;5025;48.890;9.278;2022-10-16T01:51:06;98653.81;;;16.10;87.44
9969;BME280;5025;48.890;9.278;2022-10-16T01:53:32;98649.44;;;16.09;87.40
9969;BME280;5025;48.890;9.278;2022-10-16T01:55:59;98644.81;;;16.09;87.59
9969;BME280;5025;48.890;9.278;2022-10-16T01:58:27;98653.25;;;16.08;87.50
9969;BME280;5025;48.890;9.278;2022-10-16T02:00:56;98653.25;;;16.08;87.60
9969;BME280;5025;48.890;9.278;2022-10-16T02:03:22;98647.00;;;16.07;87.63
9969;BME280;5025;48.890;9.278;2022-10-16T02:05:53;98639.09;;;16.06;87.61
9969;BME280;5025;48.890;9.278;2022-10-16T02:08:20;98632.00;;;16.05;87.68
9969;BME280;5025;48.890;9.278;2022-10-16T02:10:47;98625.75;;;16.04;87.89
9969;BME280;5025;48.890;9.278;2022-10-16T02:15:39;98640.75;;;16.07;87.75
9969;BME280;5025;48.890;9.278;2022-10-16T02:18:06;98638.81;;;16.07;88.07
9969;BME280;5025;48.890;9.278;2022-10-16T02:20:37;98644.81;;;16.04;87.87
9969;BME280;5025;48.890;9.278;2022-10-16T02:23:08;98642.88;;;16.05;87.83
9969;BME280;5025;48.890;9.278;2022-10-16T02:25:40;98646.19;;;16.07;87.97
9969;BME280;5025;48.890;9.278;2022-10-16T02:28:27;98642.63;;;16.06;88.13
9969;BME280;5025;48.890;9.278;2022-10-16T02:31:08;98646.19;;;16.07;87.89
9969;BME280;5025;48.890;9.278;2022-10-16T02:33:36;98651.63;;;16.07;87.99
9969;BME280;5025;48.890;9.278;2022-10-16T02:36:04;98647.00;;;16.07;88.00
9969;BME280;5025;48.890;9.278;2022-10-16T02:38:30;98651.63;;;16.07;88.04
9969;BME280;5025;48.890;9.278;2022-10-16T02:40:56;98646.72;;;16.04;88.08
9969;BME280;5025;48.890;9.278;2022-10-16T02:43:21;98641.28;;;16.04;87.87
9969;BME280;5025;48.890;9.278;2022-10-16T02:45:46;98651.06;;;16.05;88.17
9969;BME280;5025;48.890;9.278;2022-10-16T02:48:12;98646.16;;;16.02;88.31
9969;BME280;5025;48.890;9.278;2022-10-16T02:50:37;98654.06;;;16.03;88.32
9969;BME280;5025;48.890;9.278;2022-10-16T02:53:02;98645.63;;;16.05;88.23
9969;BME280;5025;48.890;9.278;2022-10-16T02:55:28;98654.91;;;16.04;88.10
9969;BME280;5025;48.890;9.278;2022-10-16T02:57:53;98648.88;;;16.02;87.95
9969;BME280;5025;48.890;9.278;2022-10-16T03:00:19;98651.59;;;16.02;88.07
9969;BME280;5025;48.890;9.278;2022-10-16T03:02:45;98650.53;;;16.03;87.94
9969;BME280;5025;48.890;9.278;2022-10-16T03:05:11;98648.06;;;16.01;88.08
9969;BME280;5025;48.890;9.278;2022-10-16T03:07:37;98661.13;;;15.99;88.21
9969;BME280;5025;48.890;9.278;2022-10-16T03:10:03;98657.03;;;15.97;88.03
9969;BME280;5025;48.890;9.278;2022-10-16T03:12:29;98663.28;;;15.97;88.38
9969;BME280;5025;48.890;9.278;2022-10-16T03:14:57;98664.94;;;15.98;88.09
9969;BME280;5025;48.890;9.278;2022-10-16T03:17:24;98675.56;;;16.00;88.23
9969;BME280;5025;48.890;9.278;2022-10-16T03:19:49;98669.84;;;15.96;88.42
9969;BME280;5025;48.890;9.278;2022-10-16T03:22:15;98670.66;;;15.97;88.19
9969;BME280;5025;48.890;9.278;2022-10-16T03:24:40;98667.38;;;15.94;88.29
9969;BME280;5025;48.890;9.278;2022-10-16T03:27:05;98660.56;;;15.92;88.30
9969;BME280;5025;48.890;9.278;2022-10-16T03:29:31;98663.56;;;15.90;88.36
9969;BME280;5025;48.890;9.278;2022-10-16T03:31:58;98656.47;;;15.89;88.39
9969;BME280;5025;48.890;9.278;2022-10-16T03:34:23;98663.00;;;15.88;88.44
9969;BME280;5025;48.890;9.278;2022-10-16T03:36:49;98661.09;;;15.89;88.51
9969;BME280;5025;48.890;9.278;2022-10-16T03:39:15;98666.00;;;15.87;88.55
9969;BME280;5025;48.890;9.278;2022-10-16T03:41:40;98664.88;;;15.88;88.66
9969;BME280;5025;48.890;9.278;2022-10-16T03:44:05;98662.44;;;15.86;88.60
9969;BME280;5025;48.890;9.278;2022-10-16T03:46:31;98658.91;;;15.86;88.68
9969;BME280;5025;48.890;9.278;2022-10-16T03:48:56;98664.88;;;15.83;88.65
9969;BME280;5025;48.890;9.278;2022-10-16T03:51:21;98665.69;;;15.83;88.88
9969;BME280;5025;48.890;9.278;2022-10-16T03:53:47;98668.41;;;15.83;88.80
9969;BME280;5025;48.890;9.278;2022-10-16T03:56:12;98665.16;;;15.81;88.71
9969;BME280;5025;48.890;9.278;2022-10-16T03:58:38;98666.53;;;15.79;88.82
9969;BME280;5025;48.890;9.278;2022-10-16T04:01:03;98676.56;;;15.78;88.92
9969;BME280;5025;48.890;9.278;2022-10-16T04:03:28;98668.41;;;15.78;89.06
9969;BME280;5025;48.890;9.278;2022-10-16T04:05:54;98658.63;;;15.77;89.06
9969;BME280;5025;48.890;9.278;2022-10-16T04:08:19;98660.22;;;15.78;89.01
9969;BME280;5025;48.890;9.278;2022-10-16T04:10:45;98673.59;;;15.80;89.07
9969;BME280;5025;48.890;9.278;2022-10-16T04:13:11;98674.94;;;15.77;89.08
9969;BME280;5025;48.890;9.278;2022-10-16T04:15:36;98677.34;;;15.73;89.12
9969;BME280;5025;48.890;9.278;2022-10-16T04:18:03;98676.25;;;15.74;89.28
9969;BME280;5025;48.890;9.278;2022-10-16T04:20:28;98680.31;;;15.72;89.38
9969;BME280;5025;48.890;9.278;2022-10-16T04:22:54;98674.63;;;15.73;89.63
9969;BME280;5025;48.890;9.278;2022-10-16T04:25:20;98670.00;;;15.74;89.12
9969;BME280;5025;48.890;9.278;2022-10-16T04:27:45;98673.81;;;15.73;89.13
9969;BME280;5025;48.890;9.278;2022-10-16T04:30:11;98670.53;;;15.71;89.41
9969;BME280;5025;48.890;9.278;2022-10-16T04:32:36;98674.88;;;15.72;89.34
9969;BME280;5025;48.890;9.278;2022-10-16T04:35:02;98666.97;;;15.70;89.37
9969;BME280;5025;48.890;9.278;2022-10-16T04:37:28;98673.53;;;15.69;89.33
9969;BME280;5025;48.890;9.278;2022-10-16T04:39:53;98669.16;;;15.68;89.30
9969;BME280;5025;48.890;9.278;2022-10-16T04:42:20;98672.41;;;15.65;89.29
9969;BME280;5025;48.890;9.278;2022-10-16T04:44:45;98685.75;;;15.67;89.13
9969;BME280;5025;48.890;9.278;2022-10-16T04:47:11;98689.53;;;15.66;89.16
9969;BME280;5025;48.890;9.278;2022-10-16T04:49:37;98688.72;;;15.60;89.26
9969;BME280;5025;48.890;9.278;2022-10-16T04:52:02;98694.44;;;15.58;89.41
9969;BME280;5025;48.890;9.278;2022-10-16T04:54:28;98690.88;;;15.58;89.26
9969;BME280;5025;48.890;9.278;2022-10-16T04:56:53;98688.41;;;15.56;89.37
9969;BME280;5025;48.890;9.278;2022-10-16T04:59:19;98697.09;;;15.53;89.55
9969;BME280;5025;48.890;9.278;2022-10-16T05:01:45;98706.91;;;15.54;89.48
9969;BME280;5025;48.890;9.278;2022-10-16T05:04:10;98712.88;;;15.51;89.67
9969;BME280;5025;48.890;9.278;2022-10-16T05:06:37;98717.78;;;15.49;89.46
9969;BME280;5025;48.890;9.278;2022-10-16T05:09:04;98716.63;;;15.40;89.85
9969;BME280;5025;48.890;9.278;2022-10-16T05:11:29;98713.06;;;15.39;89.91
9969;BME280;5025;48.890;9.278;2022-10-16T05:13:55;98721.81;;;15.41;89.95
9969;BME280;5025;48.890;9.278;2022-10-16T05:16:20;98722.63;;;15.42;90.02
9969;BME280;5025;48.890;9.278;2022-10-16T05:18:45;98719.91;;;15.42;90.07
9969;BME280;5025;48.890;9.278;2022-10-16T05:21:11;98722.63;;;15.42;90.10
9969;BME280;5025;48.890;9.278;2022-10-16T05:23:36;98715.28;;;15.42;90.32
9969;BME280;5025;48.890;9.278;2022-10-16T05:26:01;98707.94;;;15.43;90.06
9969;BME280;5025;48.890;9.278;2022-10-16T05:28:28;98705.47;;;15.41;90.07
9969;BME280;5025;48.890;9.278;2022-10-16T05:30:54;98704.97;;;15.45;90.18
9969;BME280;5025;48.890;9.278;2022-10-16T05:33:21;98706.03;;;15.44;90.19
9969;BME280;5025;48.890;9.278;2022-10-16T05:35:47;98713.38;;;15.43;90.17
9969;BME280;5025;48.890;9.278;2022-10-16T05:38:13;98716.09;;;15.43;90.33
9969;BME280;5025;48.890;9.278;2022-10-16T05:40:38;98709.00;;;15.42;90.23
9969;BME280;5025;48.890;9.278;2022-10-16T05:43:04;98716.63;;;15.40;90.39
9969;BME280;5025;48.890;9.278;2022-10-16T05:45:30;98719.34;;;15.40;90.05
9969;BME280;5025;48.890;9.278;2022-10-16T05:47:55;98726.69;;;15.39;90.55
9969;BME280;5025;48.890;9.278;2022-10-16T05:50:21;98727.19;;;15.36;90.46
9969;BME280;5025;48.890;9.278;2022-10-16T05:52:46;98722.59;;;15.37;90.60
9969;BME280;5025;48.890;9.278;2022-10-16T05:55:11;98725.31;;;15.37;90.72
9969;BME280;5025;48.890;9.278;2022-10-16T05:57:37;98725.06;;;15.38;90.62
9969;BME280;5025;48.890;9.278;2022-10-16T06:00:03;98732.38;;;15.38;90.87
9969;BME280;5025;48.890;9.278;2022-10-16T06:02:29;98737.53;;;15.34;90.54
9969;BME280;5025;48.890;9.278;2022-10-16T06:04:54;98739.13;;;15.30;90.77
9969;BME280;5025;48.890;9.278;2022-10-16T06:07:20;98750.28;;;15.29;90.70
9969;BME280;5025;48.890;9.278;2022-10-16T06:09:49;98746.44;;;15.24;90.94
9969;BME280;5025;48.890;9.278;2022-10-16T06:12:15;98744.81;;;15.23;91.09
9969;BME280;5025;48.890;9.278;2022-10-16T06:14:40;98761.66;;;15.26;91.03
9969;BME280;5025;48.890;9.278;2022-10-16T06:17:06;98756.75;;;15.22;90.98
9969;BME280;5025;48.890;9.278;2022-10-16T06:19:31;98752.97;;;15.23;91.02
9969;BME280;5025;48.890;9.278;2022-10-16T06:21:56;98754.03;;;15.22;91.02
9969;BME280;5025;48.890;9.278;2022-10-16T06:24:23;98757.34;;;15.24;91.18
9969;BME280;5025;48.890;9.278;2022-10-16T06:26:49;98761.66;;;15.26;91.31
9969;BME280;5025;48.890;9.278;2022-10-16T06:29:14;98760.06;;;15.24;91.33
9969;BME280;5025;48.890;9.278;2022-10-16T06:31:39;98767.13;;;15.26;91.22
9969;BME280;5025;48.890;9.278;2022-10-16T06:34:05;98768.25;;;15.30;91.38
9969;BME280;5025;48.890;9.278;2022-10-16T06:36:34;98762.00;;;15.29;91.10
9969;BME280;5025;48.890;9.278;2022-10-16T06:39:00;98762.81;;;15.30;91.41
9969;BME280;5025;48.890;9.278;2022-10-16T06:41:25;98763.63;;;15.30;91.65
9969;BME280;5025;48.890;9.278;2022-10-16T06:43:51;98760.63;;;15.32;91.44
9969;BME280;5025;48.890;9.278;2022-10-16T06:46:20;98768.78;;;15.32;91.50
9969;BME280;5025;48.890;9.278;2022-10-16T06:48:46;98768.25;;;15.30;91.62
9969;BME280;5025;48.890;9.278;2022-10-16T06:51:15;98770.72;;;15.31;91.63
9969;BME280;5025;48.890;9.278;2022-10-16T06:53:46;98772.63;;;15.31;91.75
9969;BME280;5025;48.890;9.278;2022-10-16T06:56:20;98777.28;;;15.35;91.51
9969;BME280;5025;48.890;9.278;2022-10-16T06:58:46;98792.75;;;15.35;91.70
9969;BME280;5025;48.890;9.278;2022-10-16T07:01:12;98805.81;;;15.33;91.62
9969;BME280;5025;48.890;9.278;2022-10-16T07:03:42;98804.75;;;15.34;91.79
9969;BME280;5025;48.890;9.278;2022-10-16T07:06:10;98808.28;;;15.34;92.01
9969;BME280;5025;48.890;9.278;2022-10-16T07:08:38;98818.66;;;15.37;91.91
9969;BME280;5025;48.890;9.278;2022-10-16T07:11:09;98818.13;;;15.40;92.04
9969;BME280;5025;48.890;9.278;2022-10-16T07:13:40;98820.59;;;15.42;92.05
9969;BME280;5025;48.890;9.278;2022-10-16T07:16:17;98827.41;;;15.45;92.09
9969;BME280;5025;48.890;9.278;2022-10-16T07:18:43;98816.53;;;15.45;92.04
9969;BME280;5025;48.890;9.278;2022-10-16T07:23:55;98826.66;;;15.49;92.39
9969;BME280;5025;48.890;9.278;2022-10-16T07:26:25;98837.00;;;15.52;92.15
9969;BME280;5025;48.890;9.278;2022-10-16T07:28:51;98835.09;;;15.53;92.31
9969;BME280;5025;48.890;9.278;2022-10-16T07:31:18;98834.03;;;15.54;92.35
9969;BME280;5025;48.890;9.278;2022-10-16T07:33:44;98841.09;;;15.55;92.27
9969;BME280;5025;48.890;9.278;2022-10-16T07:36:15;98841.69;;;15.57;92.38
9969;BME280;5025;48.890;9.278;2022-10-16T07:38:41;98845.50;;;15.61;92.34
9969;BME280;5025;48.890;9.278;2022-10-16T07:41:10;98843.63;;;15.62;92.53
9969;BME280;5025;48.890;9.278;2022-10-16T07:43:54;98851.25;;;15.65;92.33
9969;BME280;5025;48.890;9.278;2022-10-16T07:46:35;98852.06;;;15.65;92.28
9969;BME280;5025;48.890;9.278;2022-10-16T07:49:04;98843.66;;;15.67;92.40
9969;BME280;5025;48.890;9.278;2022-10-16T07:51:32;98849.13;;;15.72;92.36
9969;BME280;5025;48.890;9.278;2022-10-16T07:53:58;98855.66;;;15.71;92.59
9969;BME280;5025;48.890;9.278;2022-10-16T07:56:24;98852.69;;;15.72;92.42
9969;BME280;5025;48.890;9.278;2022-10-16T07:58:50;98856.28;;;15.78;92.49
9969;BME280;5025;48.890;9.278;2022-10-16T08:01:16;98852.22;;;15.81;92.78
9969;BME280;5025;48.890;9.278;2022-10-16T08:03:43;98863.41;;;15.84;92.80
9969;BME280;5025;48.890;9.278;2022-10-16T08:06:28;98855.22;;;15.84;92.88
9969;BME280;5025;48.890;9.278;2022-10-16T08:08:57;98866.47;;;15.93;92.75
9969;BME280;5025;48.890;9.278;2022-10-16T08:11:22;98865.69;;;15.98;92.75
9969;BME280;5025;48.890;9.278;2022-10-16T08:13:48;98856.72;;;16.02;92.66
9969;BME280;5025;48.890;9.278;2022-10-16T08:16:14;98863.00;;;16.08;92.58
9969;BME280;5025;48.890;9.278;2022-10-16T08:18:42;98866.59;;;16.13;92.54
9969;BME280;5025;48.890;9.278;2022-10-16T08:21:16;98866.06;;;16.17;92.46
9969;BME280;5025;48.890;9.278;2022-10-16T08:23:45;98872.91;;;16.24;92.27
9969;BME280;5025;48.890;9.278;2022-10-16T08:26:16;98867.22;;;16.31;92.25
9969;BME280;5025;48.890;9.278;2022-10-16T08:28:42;98861.81;;;16.36;92.24
9969;BME280;5025;48.890;9.278;2022-10-16T08:31:17;98865.63;;;16.40;91.90
9969;BME280;5025;48.890;9.278;2022-10-16T08:33:45;98875.22;;;16.48;91.67
9969;BME280;5025;48.890;9.278;2022-10-16T08:36:15;98883.44;;;16.58;91.37
9969;BME280;5025;48.890;9.278;2022-10-16T08:39:02;98899.28;;;16.66;91.33
9969;BME280;5025;48.890;9.278;2022-10-16T08:49:41;98903.22;;;16.86;90.91
9969;BME280;5025;48.890;9.278;2022-10-16T08:52:12;98896.69;;;16.87;90.82
9969;BME280;5025;48.890;9.278;2022-10-16T08:54:43;98889.06;;;16.94;90.61
9969;BME280;5025;48.890;9.278;2022-10-16T08:57:14;98891.53;;;16.96;90.20
9969;BME280;5025;48.890;9.278;2022-10-16T08:59:41;98883.91;;;17.03;90.06
9969;BME280;5025;48.890;9.278;2022-10-16T09:02:38;98895.69;;;17.09;89.71
9969;BME280;5025;48.890;9.278;2022-10-16T09:05:41;98892.41;;;17.12;89.45
9969;BME280;5025;48.890;9.278;2022-10-16T09:11:14;98889.69;;;17.22;88.72
9969;BME280;5025;48.890;9.278;2022-10-16T09:13:45;98889.94;;;17.26;88.80
9969;BME280;5025;48.890;9.278;2022-10-16T09:16:33;98900.59;;;17.27;88.32
9969;BME280;5025;48.890;9.278;2022-10-16T09:19:17;98905.25;;;17.32;88.20
9969;BME280;5025;48.890;9.278;2022-10-16T09:21:46;98904.72;;;17.35;88.10
9969;BME280;5025;48.890;9.278;2022-10-16T09:24:17;98906.63;;;17.39;87.95
9969;BME280;5025;48.890;9.278;2022-10-16T09:26:44;98909.94;;;17.42;87.71
9969;BME280;5025;48.890;9.278;2022-10-16T09:29:14;98902.00;;;17.45;87.79
9969;BME280;5025;48.890;9.278;2022-10-16T09:31:40;98913.19;;;17.49;87.57
9969;BME280;5025;48.890;9.278;2022-10-16T09:34:08;98921.16;;;17.55;87.52
9969;BME280;5025;48.890;9.278;2022-10-16T09:36:42;98919.25;;;17.66;87.26
9969;BME280;5025;48.890;9.278;2022-10-16T09:39:11;98921.97;;;17.77;86.82
9969;BME280;5025;48.890;9.278;2022-10-16T09:41:41;98929.63;;;17.85;86.60
9969;BME280;5025;48.890;9.278;2022-10-16T09:44:27;98926.13;;;17.89;86.34
9969;BME280;5025;48.890;9.278;2022-10-16T09:47:18;98926.09;;;18.05;85.90
9969;BME280;5025;48.890;9.278;2022-10-16T09:49:56;98928.00;;;18.15;85.29
9969;BME280;5025;48.890;9.278;2022-10-16T09:52:23;98930.72;;;18.25;85.08
9969;BME280;5025;48.890;9.278;2022-10-16T09:54:54;98931.25;;;18.32;84.76
9969;BME280;5025;48.890;9.278;2022-10-16T09:57:20;98928.25;;;18.39;84.63
9969;BME280;5025;48.890;9.278;2022-10-16T09:59:48;98923.03;;;18.42;84.23
9969;BME280;5025;48.890;9.278;2022-10-16T10:02:16;98926.00;;;18.51;83.66
9969;BME280;5025;48.890;9.278;2022-10-16T10:04:48;98940.19;;;18.69;83.38
9969;BME280;5025;48.890;9.278;2022-10-16T10:07:20;98937.97;;;18.86;83.03
9969;BME280;5025;48.890;9.278;2022-10-16T10:09:46;98949.94;;;19.01;82.25
9969;BME280;5025;48.890;9.278;2022-10-16T10:12:25;98950.97;;;19.20;81.50
9969;BME280;5025;48.890;9.278;2022-10-16T10:14:53;98953.38;;;19.32;80.75
9969;BME280;5025;48.890;9.278;2022-10-16T10:17:22;98958.28;;;19.35;79.67
9969;BME280;5025;48.890;9.278;2022-10-16T10:19:57;98951.13;;;19.39;79.18
9969;BME280;5025;48.890;9.278;2022-10-16T10:22:45;98956.31;;;19.46;78.27
9969;BME280;5025;48.890;9.278;2022-10-16T10:28:06;98950.44;;;19.63;77.12
9969;BME280;5025;48.890;9.278;2022-10-16T10:30:42;98955.25;;;19.76;76.74
9969;BME280;5025;48.890;9.278;2022-10-16T10:46:14;98948.25;;;20.58;71.77
9969;BME280;5025;48.890;9.278;2022-10-16T10:49:10;98946.88;;;20.60;70.94
9969;BME280;5025;48.890;9.278;2022-10-16T11:05:52;98949.25;;;21.35;66.26
9969;BME280;5025;48.890;9.278;2022-10-16T11:08:27;98951.69;;;21.60;65.75
9969;BME280;5025;48.890;9.278;2022-10-16T11:11:02;98949.44;;;21.62;64.60
9969;BME280;5025;48.890;9.278;2022-10-16T11:13:35;98945.09;;;21.61;64.03
9969;BME280;5025;48.890;9.278;2022-10-16T11:16:13;98935.03;;;21.71;62.99
9969;BME280;5025;48.890;9.278;2022-10-16T11:21:20;98931.88;;;21.96;62.35
9969;BME280;5025;48.890;9.278;2022-10-16T11:23:50;98932.31;;;22.03;61.78
9969;BME280;5025;48.890;9.278;2022-10-16T11:26:25;98925.94;;;22.22;61.46
9969;BME280;5025;48.890;9.278;2022-10-16T11:28:54;98929.13;;;22.29;59.94
9969;BME280;5025;48.890;9.278;2022-10-16T11:31:32;98928.84;;;22.45;59.99
9969;BME280;5025;48.890;9.278;2022-10-16T11:36:26;98923.97;;;22.55;57.10
9969;BME280;5025;48.890;9.278;2022-10-16T11:39:21;98923.63;;;22.29;55.96
9969;BME280;5025;48.890;9.278;2022-10-16T11:41:55;98919.47;;;22.32;56.91
9969;BME280;5025;48.890;9.278;2022-10-16T11:44:37;98921.72;;;22.44;56.98
9969;BME280;5025;48.890;9.278;2022-10-16T11:49:37;98925.72;;;22.65;54.50
9969;BME280;5025;48.890;9.278;2022-10-16T11:57:31;98922.13;;;22.51;52.90
9969;BME280;5025;48.890;9.278;2022-10-16T12:00:08;98920.38;;;22.41;53.12
9969;BME280;5025;48.890;9.278;2022-10-16T12:02:41;98921.28;;;22.36;52.98
9969;BME280;5025;48.890;9.278;2022-10-16T12:08:34;98920.50;;;22.50;52.98
9969;BME280;5025;48.890;9.278;2022-10-16T12:10:35;98917.75;;;22.64;53.08
9969;BME280;5025;48.890;9.278;2022-10-16T12:13:03;98915.81;;;22.78;52.50
9969;BME280;5025;48.890;9.278;2022-10-16T12:15:32;98918.75;;;22.82;52.22
9969;BME280;5025;48.890;9.278;2022-10-16T12:17:58;98915.09;;;22.72;51.92
9969;BME280;5025;48.890;9.278;2022-10-16T12:20:32;98919.38;;;22.79;52.02
9969;BME280;5025;48.890;9.278;2022-10-16T12:23:00;98920.81;;;22.90;52.16
9969;BME280;5025;48.890;9.278;2022-10-16T12:25:34;98916.31;;;22.80;51.34
9969;BME280;5025;48.890;9.278;2022-10-16T12:28:26;98911.03;;;22.84;52.41
9969;BME280;5025;48.890;9.278;2022-10-16T12:30:59;98911.09;;;23.20;52.34
9969;BME280;5025;48.890;9.278;2022-10-16T12:33:27;98911.19;;;23.29;51.30
9969;BME280;5025;48.890;9.278;2022-10-16T12:35:53;98913.03;;;23.20;50.63
9969;BME280;5025;48.890;9.278;2022-10-16T12:38:27;98914.06;;;23.24;51.15
9969;BME280;5025;48.890;9.278;2022-10-16T12:41:07;98904.22;;;23.45;51.05
9969;BME280;5025;48.890;9.278;2022-10-16T12:43:41;98905.50;;;23.85;51.10
9969;BME280;5025;48.890;9.278;2022-10-16T12:48:41;98911.16;;;24.65;50.96
9969;BME280;5025;48.890;9.278;2022-10-16T12:53:46;98908.19;;;25.28;49.81
9969;BME280;5025;48.890;9.278;2022-10-16T12:56:26;98916.22;;;25.38;48.85
9969;BME280;5025;48.890;9.278;2022-10-16T12:59:12;98914.59;;;25.63;48.79
9969;BME280;5025;48.890;9.278;2022-10-16T13:01:47;98912.31;;;25.74;48.82
9969;BME280;5025;48.890;9.278;2022-10-16T13:04:37;98907.91;;;25.90;48.67
9969;BME280;5025;48.890;9.278;2022-10-16T13:15:12;98934.44;;;26.00;48.71
9969;BME280;5025;48.890;9.278;2022-10-16T13:17:45;98932.97;;;26.03;48.94
9969;BME280;5025;48.890;9.278;2022-10-16T13:20:31;98933.13;;;25.98;49.13
9969;BME280;5025;48.890;9.278;2022-10-16T13:26:09;98922.53;;;25.91;49.49
9969;BME280;5025;48.890;9.278;2022-10-16T13:28:32;98931.50;;;25.79;49.51
9969;BME280;5025;48.890;9.278;2022-10-16T13:30:59;98921.44;;;25.66;49.64
9969;BME280;5025;48.890;9.278;2022-10-16T13:33:37;98920.94;;;25.55;49.92
9969;BME280;5025;48.890;9.278;2022-10-16T13:36:05;98926.28;;;25.51;50.00
9969;BME280;5025;48.890;9.278;2022-10-16T13:38:32;98922.88;;;25.46;49.95
9969;BME280;5025;48.890;9.278;2022-10-16T13:41:04;98927.94;;;25.35;50.28
9969;BME280;5025;48.890;9.278;2022-10-16T13:43:50;98930.78;;;25.12;50.61
9969;BME280;5025;48.890;9.278;2022-10-16T13:46:19;98924.72;;;24.93;51.18
9969;BME280;5025;48.890;9.278;2022-10-16T13:48:56;98933.47;;;24.77;51.05
9969;BME280;5025;48.890;9.278;2022-10-16T13:51:22;98940.38;;;24.66;51.33
9969;BME280;5025;48.890;9.278;2022-10-16T13:53:51;98938.41;;;24.58;51.56
9969;BME280;5025;48.890;9.278;2022-10-16T13:56:19;98937.94;;;24.64;52.13
9969;BME280;5025;48.890;9.278;2022-10-16T13:58:45;98927.94;;;24.86;52.00
9969;BME280;5025;48.890;9.278;2022-10-16T14:01:17;98938.00;;;25.31;51.35
9969;BME280;5025;48.890;9.278;2022-10-16T14:03:43;98931.50;;;25.79;50.88
9969;BME280;5025;48.890;9.278;2022-10-16T14:06:18;98931.34;;;26.02;50.67
9969;BME280;5025;48.890;9.278;2022-10-16T14:08:57;98923.84;;;26.02;50.47
9969;BME280;5025;48.890;9.278;2022-10-16T14:11:24;98927.41;;;25.94;50.83
9969;BME280;5025;48.890;9.278;2022-10-16T14:13:50;98921.06;;;25.76;51.28
9969;BME280;5025;48.890;9.278;2022-10-16T14:16:20;98925.31;;;25.56;51.58
9969;BME280;5025;48.890;9.278;2022-10-16T14:18:57;98924.31;;;25.34;52.05
9969;BME280;5025;48.890;9.278;2022-10-16T14:21:24;98927.53;;;25.10;52.22
9969;BME280;5025;48.890;9.278;2022-10-16T14:23:49;98923.72;;;24.88;52.96
9969;BME280;5025;48.890;9.278;2022-10-16T14:26:18;98936.50;;;24.67;53.45
9969;BME280;5025;48.890;9.278;2022-10-16T14:28:45;98929.06;;;24.45;53.59
9969;BME280;5025;48.890;9.278;2022-10-16T14:33:48;98930.69;;;24.14;54.60
9969;BME280;5025;48.890;9.278;2022-10-16T14:36:15;98929.31;;;24.03;54.97
9969;BME280;5025;48.890;9.278;2022-10-16T14:38:50;98933.97;;;23.94;55.15
9969;BME280;5025;48.890;9.278;2022-10-16T14:41:21;98944.13;;;23.85;55.73
9969;BME280;5025;48.890;9.278;2022-10-16T14:43:51;98944.81;;;23.76;56.00
9969;BME280;5025;48.890;9.278;2022-10-16T14:46:21;98940.06;;;23.68;55.96
9969;BME280;5025;48.890;9.278;2022-10-16T14:48:54;98939.16;;;23.59;56.35
9969;BME280;5025;48.890;9.278;2022-10-16T14:51:23;98942.53;;;23.56;56.65
9969;BME280;5025;48.890;9.278;2022-10-16T14:53:49;98946.84;;;23.48;56.91
9969;BME280;5025;48.890;9.278;2022-10-16T14:56:26;98947.47;;;23.45;57.17
9969;BME280;5025;48.890;9.278;2022-10-16T14:58:55;98948.94;;;23.42;57.39
9969;BME280;5025;48.890;9.278;2022-10-16T15:01:20;98951.16;;;23.40;57.65
9969;BME280;5025;48.890;9.278;2022-10-16T15:03:46;98943.50;;;23.37;57.77